sensor_id;sensor_type;location;lat;lon;timestamp;P1;durP1;ratioP1;P2;durP2;ratioP2
16727;SDS011;8482;54.396;18.590;2023-11-22T00:00:40;11.27;;;5.87;;
16727;SDS011;8482;54.396;18.590;2023-11-22T00:03:06;11.47;;;5.73;;
16727;SDS011;8482;54.396;18.590;2023-11-22T00:05:32;12.53;;;6.70;;
16727;SDS011;8482;54.396;18.590;2023-11-22T00:07:57;13.63;;;6.53;;
16727;SDS011;8482;54.396;18.590;2023-11-22T00:10:23;9.97;;;5.53;;
16727;SDS011;8482;54.396;18.590;2023-11-22T00:12:49;11.13;;;5.53;;
16727;SDS011;8482;54.396;18.590;2023-11-22T00:15:15;10.93;;;5.70;;
16727;SDS011;8482;54.396;18.590;2023-11-22T00:17:46;12.03;;;5.63;;
16727;SDS011;8482;54.396;18.590;2023-11-22T00:20:12;11.70;;;6.03;;
16727;SDS011;8482;54.396;18.590;2023-11-22T00:22:38;12.30;;;5.90;;
16727;SDS011;8482;54.396;18.590;2023-11-22T00:25:04;13.37;;;5.90;;
16727;SDS011;8482;54.396;18.590;2023-11-22T00:27:30;10.63;;;5.57;;
16727;SDS011;8482;54.396;18.590;2023-11-22T00:29:56;11.97;;;5.83;;
16727;SDS011;8482;54.396;18.590;2023-11-22T00:32:23;11.83;;;5.50;;
16727;SDS011;8482;54.396;18.590;2023-11-22T00:34:50;11.87;;;5.63;;
16727;SDS011;8482;54.396;18.590;2023-11-22T00:37:17;11.50;;;6.13;;
16727;SDS011;8482;54.396;18.590;2023-11-22T00:39:43;10.97;;;5.70;;
16727;SDS011;8482;54.396;18.590;2023-11-22T00:42:09;11.70;;;5.17;;
16727;SDS011;8482;54.396;18.590;2023-11-22T00:44:34;14.37;;;5.93;;
16727;SDS011;8482;54.396;18.590;2023-11-22T00:47:01;11.83;;;5.80;;
16727;SDS011;8482;54.396;18.590;2023-11-22T00:49:28;14.27;;;6.63;;
16727;SDS011;8482;54.396;18.590;2023-11-22T00:51:54;13.47;;;6.57;;
16727;SDS011;8482;54.396;18.590;2023-11-22T00:54:19;14.00;;;6.23;;
16727;SDS011;8482;54.396;18.590;2023-11-22T00:56:48;12.33;;;6.73;;
16727;SDS011;8482;54.396;18.590;2023-11-22T00:59:17;13.60;;;6.83;;
16727;SDS011;8482;54.396;18.590;2023-11-22T01:01:44;11.77;;;5.97;;
16727;SDS011;8482;54.396;18.590;2023-11-22T01:04:10;15.07;;;7.87;;
16727;SDS011;8482;54.396;18.590;2023-11-22T01:06:36;13.73;;;6.57;;
16727;SDS011;8482;54.396;18.590;2023-11-22T01:09:02;13.27;;;6.80;;
16727;SDS011;8482;54.396;18.590;2023-11-22T01:11:29;12.10;;;6.13;;
16727;SDS011;8482;54.396;18.590;2023-11-22T01:13:55;15.00;;;6.63;;
16727;SDS011;8482;54.396;18.590;2023-11-22T01:16:21;11.93;;;5.90;;
16727;SDS011;8482;54.396;18.590;2023-11-22T01:18:47;13.87;;;6.93;;
16727;SDS011;8482;54.396;18.590;2023-11-22T01:21:13;13.33;;;6.83;;
16727;SDS011;8482;54.396;18.590;2023-11-22T01:23:39;14.27;;;6.63;;
16727;SDS011;8482;54.396;18.590;2023-11-22T01:26:05;13.10;;;6.20;;
16727;SDS011;8482;54.396;18.590;2023-11-22T01:28:30;16.63;;;6.77;;
16727;SDS011;8482;54.396;18.590;2023-11-22T01:31:00;12.30;;;6.30;;
16727;SDS011;8482;54.396;18.590;2023-11-22T01:33:27;12.23;;;6.73;;
16727;SDS011;8482;54.396;18.590;2023-11-22T01:35:53;12.77;;;6.10;;
16727;SDS011;8482;54.396;18.590;2023-11-22T01:38:19;15.57;;;7.13;;
16727;SDS011;8482;54.396;18.590;2023-11-22T01:40:45;14.63;;;7.10;;
16727;SDS011;8482;54.396;18.590;2023-11-22T01:43:18;13.53;;;6.90;;
16727;SDS011;8482;54.396;18.590;2023-11-22T01:45:49;13.50;;;6.57;;
16727;SDS011;8482;54.396;18.590;2023-11-22T01:48:15;14.67;;;7.33;;
16727;SDS011;8482;54.396;18.590;2023-11-22T01:50:42;15.70;;;6.87;;
16727;SDS011;8482;54.396;18.590;2023-11-22T01:53:09;14.80;;;7.13;;
16727;SDS011;8482;54.396;18.590;2023-11-22T01:55:38;13.93;;;6.37;;
16727;SDS011;8482;54.396;18.590;2023-11-22T01:58:06;11.37;;;6.10;;
16727;SDS011;8482;54.396;18.590;2023-11-22T02:00:35;12.97;;;6.63;;
16727;SDS011;8482;54.396;18.590;2023-11-22T02:03:10;13.67;;;5.73;;
16727;SDS011;8482;54.396;18.590;2023-11-22T02:05:39;11.47;;;5.80;;
16727;SDS011;8482;54.396;18.590;2023-11-22T02:08:09;13.63;;;5.83;;
16727;SDS011;8482;54.396;18.590;2023-11-22T02:10:38;12.43;;;6.23;;
16727;SDS011;8482;54.396;18.590;2023-11-22T02:13:05;12.50;;;6.30;;
16727;SDS011;8482;54.396;18.590;2023-11-22T02:15:33;11.80;;;6.00;;
16727;SDS011;8482;54.396;18.590;2023-11-22T02:18:00;14.70;;;6.43;;
16727;SDS011;8482;54.396;18.590;2023-11-22T02:20:27;10.87;;;6.03;;
16727;SDS011;8482;54.396;18.590;2023-11-22T02:22:52;14.67;;;7.23;;
16727;SDS011;8482;54.396;18.590;2023-11-22T02:25:19;15.07;;;6.80;;
16727;SDS011;8482;54.396;18.590;2023-11-22T02:27:45;11.70;;;6.10;;
16727;SDS011;8482;54.396;18.590;2023-11-22T02:30:11;13.40;;;6.90;;
16727;SDS011;8482;54.396;18.590;2023-11-22T02:32:37;13.73;;;6.57;;
16727;SDS011;8482;54.396;18.590;2023-11-22T02:35:04;13.57;;;6.80;;
16727;SDS011;8482;54.396;18.590;2023-11-22T02:37:34;14.47;;;6.87;;
16727;SDS011;8482;54.396;18.590;2023-11-22T02:40:11;13.00;;;6.80;;
16727;SDS011;8482;54.396;18.590;2023-11-22T02:42:48;15.03;;;6.43;;
16727;SDS011;8482;54.396;18.590;2023-11-22T02:45:15;11.47;;;5.93;;
16727;SDS011;8482;54.396;18.590;2023-11-22T02:47:43;14.43;;;6.60;;
16727;SDS011;8482;54.396;18.590;2023-11-22T02:50:11;13.53;;;6.23;;
16727;SDS011;8482;54.396;18.590;2023-11-22T02:52:43;11.43;;;5.77;;
16727;SDS011;8482;54.396;18.590;2023-11-22T02:55:09;13.73;;;6.33;;
16727;SDS011;8482;54.396;18.590;2023-11-22T02:57:36;12.13;;;5.93;;
16727;SDS011;8482;54.396;18.590;2023-11-22T03:00:05;13.47;;;6.73;;
16727;SDS011;8482;54.396;18.590;2023-11-22T03:02:33;13.53;;;5.87;;
16727;SDS011;8482;54.396;18.590;2023-11-22T03:05:02;11.10;;;5.77;;
16727;SDS011;8482;54.396;18.590;2023-11-22T03:07:29;13.77;;;6.17;;
16727;SDS011;8482;54.396;18.590;2023-11-22T03:09:55;13.40;;;6.20;;
16727;SDS011;8482;54.396;18.590;2023-11-22T03:12:24;10.37;;;5.37;;
16727;SDS011;8482;54.396;18.590;2023-11-22T03:14:49;13.43;;;5.93;;
16727;SDS011;8482;54.396;18.590;2023-11-22T03:17:15;11.77;;;6.10;;
16727;SDS011;8482;54.396;18.590;2023-11-22T03:19:41;11.87;;;5.27;;
16727;SDS011;8482;54.396;18.590;2023-11-22T03:22:07;11.93;;;5.67;;
16727;SDS011;8482;54.396;18.590;2023-11-22T03:24:33;13.67;;;6.27;;
16727;SDS011;8482;54.396;18.590;2023-11-22T03:27:00;10.90;;;5.47;;
16727;SDS011;8482;54.396;18.590;2023-11-22T03:29:26;12.80;;;5.60;;
16727;SDS011;8482;54.396;18.590;2023-11-22T03:31:52;13.50;;;6.00;;
16727;SDS011;8482;54.396;18.590;2023-11-22T03:34:21;13.23;;;6.30;;
16727;SDS011;8482;54.396;18.590;2023-11-22T03:36:47;11.27;;;5.93;;
16727;SDS011;8482;54.396;18.590;2023-11-22T03:39:14;13.37;;;6.50;;
16727;SDS011;8482;54.396;18.590;2023-11-22T03:41:41;13.50;;;6.57;;
16727;SDS011;8482;54.396;18.590;2023-11-22T03:44:07;12.10;;;5.93;;
16727;SDS011;8482;54.396;18.590;2023-11-22T03:46:34;13.77;;;6.20;;
16727;SDS011;8482;54.396;18.590;2023-11-22T03:49:02;13.77;;;6.10;;
16727;SDS011;8482;54.396;18.590;2023-11-22T03:51:34;11.13;;;5.10;;
16727;SDS011;8482;54.396;18.590;2023-11-22T03:54:02;9.30;;;4.50;;
16727;SDS011;8482;54.396;18.590;2023-11-22T03:56:28;9.60;;;4.70;;
16727;SDS011;8482;54.396;18.590;2023-11-22T03:58:55;10.87;;;4.87;;
16727;SDS011;8482;54.396;18.590;2023-11-22T04:01:21;10.03;;;4.63;;
16727;SDS011;8482;54.396;18.590;2023-11-22T04:03:47;9.27;;;4.70;;
16727;SDS011;8482;54.396;18.590;2023-11-22T04:06:16;8.90;;;4.40;;
16727;SDS011;8482;54.396;18.590;2023-11-22T04:08:44;10.10;;;4.37;;
16727;SDS011;8482;54.396;18.590;2023-11-22T04:11:15;8.77;;;4.27;;
16727;SDS011;8482;54.396;18.590;2023-11-22T04:13:42;10.23;;;4.63;;
16727;SDS011;8482;54.396;18.590;2023-11-22T04:16:08;9.07;;;4.00;;
16727;SDS011;8482;54.396;18.590;2023-11-22T04:18:37;8.07;;;4.23;;
16727;SDS011;8482;54.396;18.590;2023-11-22T04:21:07;8.00;;;4.03;;
16727;SDS011;8482;54.396;18.590;2023-11-22T04:23:34;9.90;;;4.30;;
16727;SDS011;8482;54.396;18.590;2023-11-22T04:26:01;8.00;;;3.90;;
16727;SDS011;8482;54.396;18.590;2023-11-22T04:28:28;7.93;;;4.17;;
16727;SDS011;8482;54.396;18.590;2023-11-22T04:30:55;8.40;;;4.03;;
16727;SDS011;8482;54.396;18.590;2023-11-22T04:33:22;7.80;;;3.30;;
16727;SDS011;8482;54.396;18.590;2023-11-22T04:35:48;8.37;;;3.80;;
16727;SDS011;8482;54.396;18.590;2023-11-22T04:38:15;9.97;;;4.40;;
16727;SDS011;8482;54.396;18.590;2023-11-22T04:40:41;9.03;;;4.47;;
16727;SDS011;8482;54.396;18.590;2023-11-22T04:43:09;7.80;;;4.00;;
16727;SDS011;8482;54.396;18.590;2023-11-22T04:45:35;10.03;;;4.20;;
16727;SDS011;8482;54.396;18.590;2023-11-22T04:48:02;7.47;;;3.47;;
16727;SDS011;8482;54.396;18.590;2023-11-22T04:50:29;8.20;;;3.60;;
16727;SDS011;8482;54.396;18.590;2023-11-22T04:52:55;7.70;;;3.47;;
16727;SDS011;8482;54.396;18.590;2023-11-22T04:55:21;7.70;;;3.67;;
16727;SDS011;8482;54.396;18.590;2023-11-22T04:57:48;9.33;;;3.57;;
16727;SDS011;8482;54.396;18.590;2023-11-22T05:00:15;7.10;;;3.40;;
16727;SDS011;8482;54.396;18.590;2023-11-22T05:02:42;7.77;;;3.60;;
16727;SDS011;8482;54.396;18.590;2023-11-22T05:05:08;7.20;;;3.53;;
16727;SDS011;8482;54.396;18.590;2023-11-22T05:07:37;6.57;;;3.20;;
16727;SDS011;8482;54.396;18.590;2023-11-22T05:10:04;6.40;;;3.40;;
16727;SDS011;8482;54.396;18.590;2023-11-22T05:12:34;7.23;;;3.43;;
16727;SDS011;8482;54.396;18.590;2023-11-22T05:14:59;6.87;;;3.50;;
16727;SDS011;8482;54.396;18.590;2023-11-22T05:17:27;7.20;;;3.00;;
16727;SDS011;8482;54.396;18.590;2023-11-22T05:19:52;6.27;;;2.80;;
16727;SDS011;8482;54.396;18.590;2023-11-22T05:22:18;9.47;;;3.40;;
16727;SDS011;8482;54.396;18.590;2023-11-22T05:24:44;7.40;;;3.07;;
16727;SDS011;8482;54.396;18.590;2023-11-22T05:27:10;5.77;;;2.70;;
16727;SDS011;8482;54.396;18.590;2023-11-22T05:29:36;5.50;;;2.63;;
16727;SDS011;8482;54.396;18.590;2023-11-22T05:32:03;6.73;;;2.97;;
16727;SDS011;8482;54.396;18.590;2023-11-22T05:34:30;5.57;;;2.80;;
16727;SDS011;8482;54.396;18.590;2023-11-22T05:36:55;6.80;;;2.80;;
16727;SDS011;8482;54.396;18.590;2023-11-22T05:39:21;6.70;;;2.70;;
16727;SDS011;8482;54.396;18.590;2023-11-22T05:41:47;4.90;;;2.43;;
16727;SDS011;8482;54.396;18.590;2023-11-22T05:44:14;6.17;;;3.03;;
16727;SDS011;8482;54.396;18.590;2023-11-22T05:46:40;5.90;;;3.17;;
16727;SDS011;8482;54.396;18.590;2023-11-22T05:49:06;8.77;;;3.33;;
16727;SDS011;8482;54.396;18.590;2023-11-22T05:51:32;7.30;;;3.10;;
16727;SDS011;8482;54.396;18.590;2023-11-22T05:53:59;7.23;;;3.70;;
16727;SDS011;8482;54.396;18.590;2023-11-22T05:56:25;7.63;;;3.07;;
16727;SDS011;8482;54.396;18.590;2023-11-22T05:58:50;7.47;;;3.67;;
16727;SDS011;8482;54.396;18.590;2023-11-22T06:01:16;8.63;;;3.93;;
16727;SDS011;8482;54.396;18.590;2023-11-22T06:03:42;7.60;;;3.30;;
16727;SDS011;8482;54.396;18.590;2023-11-22T06:06:08;7.30;;;3.40;;
16727;SDS011;8482;54.396;18.590;2023-11-22T06:08:34;6.73;;;3.43;;
16727;SDS011;8482;54.396;18.590;2023-11-22T06:11:00;6.90;;;3.37;;
16727;SDS011;8482;54.396;18.590;2023-11-22T06:13:26;8.87;;;3.70;;
16727;SDS011;8482;54.396;18.590;2023-11-22T06:15:52;7.77;;;3.83;;
16727;SDS011;8482;54.396;18.590;2023-11-22T06:18:18;7.80;;;3.80;;
16727;SDS011;8482;54.396;18.590;2023-11-22T06:20:44;7.33;;;3.27;;
16727;SDS011;8482;54.396;18.590;2023-11-22T06:23:12;6.80;;;3.40;;
16727;SDS011;8482;54.396;18.590;2023-11-22T06:25:38;6.57;;;3.50;;
16727;SDS011;8482;54.396;18.590;2023-11-22T06:28:07;7.83;;;3.30;;
16727;SDS011;8482;54.396;18.590;2023-11-22T06:30:33;8.30;;;3.07;;
16727;SDS011;8482;54.396;18.590;2023-11-22T06:33:00;7.93;;;3.40;;
16727;SDS011;8482;54.396;18.590;2023-11-22T06:35:26;6.07;;;2.93;;
16727;SDS011;8482;54.396;18.590;2023-11-22T06:37:52;6.90;;;3.13;;
16727;SDS011;8482;54.396;18.590;2023-11-22T06:40:18;7.17;;;3.43;;
16727;SDS011;8482;54.396;18.590;2023-11-22T06:42:45;6.53;;;3.40;;
16727;SDS011;8482;54.396;18.590;2023-11-22T06:45:12;7.40;;;3.47;;
16727;SDS011;8482;54.396;18.590;2023-11-22T06:47:38;8.10;;;3.83;;
16727;SDS011;8482;54.396;18.590;2023-11-22T06:50:05;8.23;;;3.40;;
16727;SDS011;8482;54.396;18.590;2023-11-22T06:52:34;7.33;;;3.33;;
16727;SDS011;8482;54.396;18.590;2023-11-22T06:55:04;7.37;;;3.37;;
16727;SDS011;8482;54.396;18.590;2023-11-22T06:57:37;8.27;;;3.73;;
16727;SDS011;8482;54.396;18.590;2023-11-22T07:00:04;6.73;;;3.00;;
16727;SDS011;8482;54.396;18.590;2023-11-22T07:02:34;6.60;;;3.30;;
16727;SDS011;8482;54.396;18.590;2023-11-22T07:05:01;9.50;;;4.07;;
16727;SDS011;8482;54.396;18.590;2023-11-22T07:07:39;8.03;;;3.30;;
16727;SDS011;8482;54.396;18.590;2023-11-22T07:10:05;8.10;;;3.50;;
16727;SDS011;8482;54.396;18.590;2023-11-22T07:12:35;7.27;;;3.63;;
16727;SDS011;8482;54.396;18.590;2023-11-22T07:15:01;7.17;;;3.20;;
16727;SDS011;8482;54.396;18.590;2023-11-22T07:17:28;7.60;;;4.00;;
16727;SDS011;8482;54.396;18.590;2023-11-22T07:19:54;8.40;;;3.40;;
16727;SDS011;8482;54.396;18.590;2023-11-22T07:22:20;7.23;;;3.30;;
16727;SDS011;8482;54.396;18.590;2023-11-22T07:24:48;7.60;;;3.67;;
16727;SDS011;8482;54.396;18.590;2023-11-22T07:27:19;9.57;;;4.70;;
16727;SDS011;8482;54.396;18.590;2023-11-22T07:29:46;7.10;;;3.57;;
16727;SDS011;8482;54.396;18.590;2023-11-22T07:32:12;8.37;;;3.43;;
16727;SDS011;8482;54.396;18.590;2023-11-22T07:34:38;6.87;;;3.30;;
16727;SDS011;8482;54.396;18.590;2023-11-22T07:37:06;6.30;;;2.90;;
16727;SDS011;8482;54.396;18.590;2023-11-22T07:39:33;6.60;;;3.40;;
16727;SDS011;8482;54.396;18.590;2023-11-22T07:42:00;6.83;;;3.30;;
16727;SDS011;8482;54.396;18.590;2023-11-22T07:44:27;7.90;;;3.83;;
16727;SDS011;8482;54.396;18.590;2023-11-22T07:46:57;6.77;;;3.33;;
16727;SDS011;8482;54.396;18.590;2023-11-22T07:49:24;7.53;;;3.37;;
16727;SDS011;8482;54.396;18.590;2023-11-22T07:51:50;6.37;;;3.33;;
16727;SDS011;8482;54.396;18.590;2023-11-22T07:54:18;5.47;;;2.87;;
16727;SDS011;8482;54.396;18.590;2023-11-22T07:56:47;6.93;;;2.97;;
16727;SDS011;8482;54.396;18.590;2023-11-22T07:59:14;5.93;;;3.10;;
16727;SDS011;8482;54.396;18.590;2023-11-22T08:01:43;5.40;;;2.80;;
16727;SDS011;8482;54.396;18.590;2023-11-22T08:04:12;5.70;;;2.90;;
16727;SDS011;8482;54.396;18.590;2023-11-22T08:06:39;5.97;;;2.40;;
16727;SDS011;8482;54.396;18.590;2023-11-22T08:09:04;4.53;;;2.27;;
16727;SDS011;8482;54.396;18.590;2023-11-22T08:11:31;6.30;;;2.80;;
16727;SDS011;8482;54.396;18.590;2023-11-22T08:13:57;5.77;;;2.90;;
16727;SDS011;8482;54.396;18.590;2023-11-22T08:16:24;7.07;;;2.90;;
16727;SDS011;8482;54.396;18.590;2023-11-22T08:18:51;6.87;;;3.07;;
16727;SDS011;8482;54.396;18.590;2023-11-22T08:21:18;5.93;;;2.87;;
16727;SDS011;8482;54.396;18.590;2023-11-22T08:23:45;5.63;;;2.70;;
16727;SDS011;8482;54.396;18.590;2023-11-22T08:26:12;8.00;;;3.30;;
16727;SDS011;8482;54.396;18.590;2023-11-22T08:28:39;6.73;;;3.27;;
16727;SDS011;8482;54.396;18.590;2023-11-22T08:31:05;7.47;;;3.50;;
16727;SDS011;8482;54.396;18.590;2023-11-22T08:33:34;7.93;;;3.90;;
16727;SDS011;8482;54.396;18.590;2023-11-22T08:36:01;6.60;;;3.37;;
16727;SDS011;8482;54.396;18.590;2023-11-22T08:38:29;7.07;;;3.40;;
16727;SDS011;8482;54.396;18.590;2023-11-22T08:40:58;8.97;;;3.93;;
16727;SDS011;8482;54.396;18.590;2023-11-22T08:43:29;5.83;;;3.37;;
16727;SDS011;8482;54.396;18.590;2023-11-22T08:45:57;8.60;;;4.47;;
16727;SDS011;8482;54.396;18.590;2023-11-22T08:48:24;7.10;;;3.60;;
16727;SDS011;8482;54.396;18.590;2023-11-22T08:50:50;7.60;;;3.73;;
16727;SDS011;8482;54.396;18.590;2023-11-22T08:53:18;8.53;;;4.03;;
16727;SDS011;8482;54.396;18.590;2023-11-22T08:55:45;8.30;;;4.40;;
16727;SDS011;8482;54.396;18.590;2023-11-22T08:58:12;8.90;;;4.57;;
16727;SDS011;8482;54.396;18.590;2023-11-22T09:00:38;8.73;;;4.60;;
16727;SDS011;8482;54.396;18.590;2023-11-22T09:03:07;9.13;;;4.30;;
16727;SDS011;8482;54.396;18.590;2023-11-22T09:05:35;7.97;;;4.17;;
16727;SDS011;8482;54.396;18.590;2023-11-22T09:08:01;9.10;;;4.27;;
16727;SDS011;8482;54.396;18.590;2023-11-22T09:10:27;9.57;;;4.57;;
16727;SDS011;8482;54.396;18.590;2023-11-22T09:12:53;8.10;;;4.10;;
16727;SDS011;8482;54.396;18.590;2023-11-22T09:15:19;7.30;;;4.10;;
16727;SDS011;8482;54.396;18.590;2023-11-22T09:17:51;7.77;;;3.73;;
16727;SDS011;8482;54.396;18.590;2023-11-22T09:20:19;9.47;;;4.03;;
16727;SDS011;8482;54.396;18.590;2023-11-22T09:22:46;8.80;;;4.43;;
16727;SDS011;8482;54.396;18.590;2023-11-22T09:25:19;8.10;;;3.80;;
16727;SDS011;8482;54.396;18.590;2023-11-22T09:27:51;6.83;;;3.53;;
16727;SDS011;8482;54.396;18.590;2023-11-22T09:30:21;8.77;;;3.87;;
16727;SDS011;8482;54.396;18.590;2023-11-22T09:33:10;6.43;;;3.50;;
16727;SDS011;8482;54.396;18.590;2023-11-22T09:35:42;6.97;;;3.60;;
16727;SDS011;8482;54.396;18.590;2023-11-22T09:38:10;7.27;;;3.90;;
16727;SDS011;8482;54.396;18.590;2023-11-22T09:40:46;8.70;;;4.03;;
16727;SDS011;8482;54.396;18.590;2023-11-22T09:43:14;8.50;;;3.93;;
16727;SDS011;8482;54.396;18.590;2023-11-22T09:45:45;6.90;;;3.47;;
16727;SDS011;8482;54.396;18.590;2023-11-22T09:48:18;8.30;;;3.97;;
16727;SDS011;8482;54.396;18.590;2023-11-22T09:51:02;8.97;;;4.83;;
16727;SDS011;8482;54.396;18.590;2023-11-22T09:53:58;7.57;;;3.73;;
16727;SDS011;8482;54.396;18.590;2023-11-22T09:56:29;9.03;;;4.07;;
16727;SDS011;8482;54.396;18.590;2023-11-22T09:58:58;7.40;;;3.67;;
16727;SDS011;8482;54.396;18.590;2023-11-22T10:01:29;8.23;;;4.00;;
16727;SDS011;8482;54.396;18.590;2023-11-22T10:04:01;7.77;;;4.27;;
16727;SDS011;8482;54.396;18.590;2023-11-22T10:06:30;9.47;;;4.33;;
16727;SDS011;8482;54.396;18.590;2023-11-22T10:08:59;8.33;;;4.30;;
16727;SDS011;8482;54.396;18.590;2023-11-22T10:11:36;9.13;;;4.20;;
16727;SDS011;8482;54.396;18.590;2023-11-22T10:14:04;9.67;;;4.30;;
16727;SDS011;8482;54.396;18.590;2023-11-22T10:16:30;8.97;;;4.40;;
16727;SDS011;8482;54.396;18.590;2023-11-22T10:18:55;7.03;;;3.87;;
16727;SDS011;8482;54.396;18.590;2023-11-22T10:21:24;7.10;;;3.60;;
16727;SDS011;8482;54.396;18.590;2023-11-22T10:24:02;6.83;;;3.33;;
16727;SDS011;8482;54.396;18.590;2023-11-22T10:26:29;6.30;;;3.10;;
16727;SDS011;8482;54.396;18.590;2023-11-22T10:28:55;6.40;;;2.90;;
16727;SDS011;8482;54.396;18.590;2023-11-22T10:31:23;5.13;;;2.97;;
16727;SDS011;8482;54.396;18.590;2023-11-22T10:33:50;7.33;;;3.40;;
16727;SDS011;8482;54.396;18.590;2023-11-22T10:36:18;4.90;;;3.13;;
16727;SDS011;8482;54.396;18.590;2023-11-22T10:38:46;4.77;;;2.47;;
16727;SDS011;8482;54.396;18.590;2023-11-22T10:41:12;5.73;;;2.90;;
16727;SDS011;8482;54.396;18.590;2023-11-22T10:43:39;5.70;;;3.10;;
16727;SDS011;8482;54.396;18.590;2023-11-22T10:46:07;5.50;;;2.57;;
16727;SDS011;8482;54.396;18.590;2023-11-22T10:48:37;5.77;;;2.87;;
16727;SDS011;8482;54.396;18.590;2023-11-22T10:51:04;5.30;;;2.50;;
16727;SDS011;8482;54.396;18.590;2023-11-22T10:53:32;6.03;;;2.80;;
16727;SDS011;8482;54.396;18.590;2023-11-22T10:56:21;5.83;;;2.83;;
16727;SDS011;8482;54.396;18.590;2023-11-22T10:58:49;5.60;;;2.40;;
16727;SDS011;8482;54.396;18.590;2023-11-22T11:01:24;5.80;;;2.73;;
16727;SDS011;8482;54.396;18.590;2023-11-22T11:04:08;8.47;;;2.90;;
16727;SDS011;8482;54.396;18.590;2023-11-22T11:06:44;5.90;;;2.67;;
16727;SDS011;8482;54.396;18.590;2023-11-22T11:09:16;4.87;;;2.43;;
16727;SDS011;8482;54.396;18.590;2023-11-22T11:11:46;5.63;;;2.73;;
16727;SDS011;8482;54.396;18.590;2023-11-22T11:14:12;4.70;;;2.50;;
16727;SDS011;8482;54.396;18.590;2023-11-22T11:16:40;4.63;;;2.50;;
16727;SDS011;8482;54.396;18.590;2023-11-22T11:19:13;5.00;;;2.60;;
16727;SDS011;8482;54.396;18.590;2023-11-22T11:21:42;4.80;;;1.80;;
16727;SDS011;8482;54.396;18.590;2023-11-22T11:24:08;5.07;;;2.00;;
16727;SDS011;8482;54.396;18.590;2023-11-22T11:26:34;6.33;;;2.17;;
16727;SDS011;8482;54.396;18.590;2023-11-22T11:29:00;3.23;;;1.83;;
16727;SDS011;8482;54.396;18.590;2023-11-22T11:31:31;4.25;;;1.80;;
16727;SDS011;8482;54.396;18.590;2023-11-22T11:34:00;4.17;;;1.77;;
16727;SDS011;8482;54.396;18.590;2023-11-22T11:36:30;4.27;;;1.97;;
16727;SDS011;8482;54.396;18.590;2023-11-22T11:38:59;3.60;;;1.40;;
16727;SDS011;8482;54.396;18.590;2023-11-22T11:41:31;3.63;;;1.67;;
16727;SDS011;8482;54.396;18.590;2023-11-22T11:44:01;4.67;;;2.30;;
16727;SDS011;8482;54.396;18.590;2023-11-22T11:46:28;5.35;;;2.20;;
16727;SDS011;8482;54.396;18.590;2023-11-22T11:48:55;3.97;;;1.83;;
16727;SDS011;8482;54.396;18.590;2023-11-22T11:51:26;4.47;;;1.90;;
16727;SDS011;8482;54.396;18.590;2023-11-22T11:53:56;4.97;;;2.22;;
16727;SDS011;8482;54.396;18.590;2023-11-22T11:56:22;4.53;;;2.05;;
16727;SDS011;8482;54.396;18.590;2023-11-22T11:58:51;5.65;;;2.33;;
16727;SDS011;8482;54.396;18.590;2023-11-22T12:01:22;5.38;;;2.15;;
16727;SDS011;8482;54.396;18.590;2023-11-22T12:03:48;5.10;;;2.40;;
16727;SDS011;8482;54.396;18.590;2023-11-22T12:06:18;3.92;;;1.90;;
16727;SDS011;8482;54.396;18.590;2023-11-22T12:08:44;4.47;;;1.95;;
16727;SDS011;8482;54.396;18.590;2023-11-22T12:11:12;4.55;;;2.20;;
16727;SDS011;8482;54.396;18.590;2023-11-22T12:13:41;4.72;;;2.20;;
16727;SDS011;8482;54.396;18.590;2023-11-22T12:16:13;5.25;;;2.38;;
16727;SDS011;8482;54.396;18.590;2023-11-22T12:21:08;6.45;;;2.88;;
16727;SDS011;8482;54.396;18.590;2023-11-22T12:23:38;5.95;;;3.55;;
16727;SDS011;8482;54.396;18.590;2023-11-22T12:26:09;6.00;;;3.15;;
16727;SDS011;8482;54.396;18.590;2023-11-22T12:28:37;5.50;;;2.80;;
16727;SDS011;8482;54.396;18.590;2023-11-22T12:31:09;7.55;;;3.70;;
16727;SDS011;8482;54.396;18.590;2023-11-22T12:33:36;9.88;;;4.07;;
16727;SDS011;8482;54.396;18.590;2023-11-22T12:36:05;9.13;;;4.90;;
16727;SDS011;8482;54.396;18.590;2023-11-22T12:38:34;10.00;;;5.13;;
16727;SDS011;8482;54.396;18.590;2023-11-22T12:41:02;10.73;;;5.18;;
16727;SDS011;8482;54.396;18.590;2023-11-22T12:43:31;10.55;;;5.50;;
16727;SDS011;8482;54.396;18.590;2023-11-22T12:45:59;11.20;;;5.88;;
16727;SDS011;8482;54.396;18.590;2023-11-22T12:48:29;11.13;;;4.85;;
16727;SDS011;8482;54.396;18.590;2023-11-22T12:50:56;13.70;;;6.93;;
16727;SDS011;8482;54.396;18.590;2023-11-22T12:53:22;11.15;;;5.22;;
16727;SDS011;8482;54.396;18.590;2023-11-22T12:55:51;10.50;;;5.63;;
16727;SDS011;8482;54.396;18.590;2023-11-22T12:58:19;9.95;;;4.82;;
16727;SDS011;8482;54.396;18.590;2023-11-22T13:00:48;9.90;;;5.00;;
16727;SDS011;8482;54.396;18.590;2023-11-22T13:03:15;8.82;;;4.82;;
16727;SDS011;8482;54.396;18.590;2023-11-22T13:05:43;9.55;;;5.07;;
16727;SDS011;8482;54.396;18.590;2023-11-22T13:08:10;8.52;;;4.32;;
16727;SDS011;8482;54.396;18.590;2023-11-22T13:10:42;9.00;;;4.60;;
16727;SDS011;8482;54.396;18.590;2023-11-22T13:13:11;9.57;;;4.70;;
16727;SDS011;8482;54.396;18.590;2023-11-22T13:15:38;9.68;;;4.60;;
16727;SDS011;8482;54.396;18.590;2023-11-22T13:18:05;10.10;;;4.57;;
16727;SDS011;8482;54.396;18.590;2023-11-22T13:20:33;8.52;;;4.60;;
16727;SDS011;8482;54.396;18.590;2023-11-22T13:23:00;9.10;;;4.87;;
16727;SDS011;8482;54.396;18.590;2023-11-22T13:25:27;8.85;;;4.50;;
16727;SDS011;8482;54.396;18.590;2023-11-22T13:27:53;7.63;;;4.53;;
16727;SDS011;8482;54.396;18.590;2023-11-22T13:30:21;9.45;;;4.65;;
16727;SDS011;8482;54.396;18.590;2023-11-22T13:32:48;8.57;;;5.10;;
16727;SDS011;8482;54.396;18.590;2023-11-22T13:35:15;9.90;;;5.07;;
16727;SDS011;8482;54.396;18.590;2023-11-22T13:37:42;11.07;;;5.73;;
16727;SDS011;8482;54.396;18.590;2023-11-22T13:40:16;10.97;;;5.97;;
16727;SDS011;8482;54.396;18.590;2023-11-22T13:42:47;9.20;;;5.00;;
16727;SDS011;8482;54.396;18.590;2023-11-22T13:45:17;12.00;;;6.00;;
16727;SDS011;8482;54.396;18.590;2023-11-22T13:47:44;10.10;;;5.57;;
16727;SDS011;8482;54.396;18.590;2023-11-22T13:50:18;12.47;;;5.87;;
16727;SDS011;8482;54.396;18.590;2023-11-22T13:52:45;9.47;;;4.80;;
16727;SDS011;8482;54.396;18.590;2023-11-22T13:55:11;9.00;;;5.00;;
16727;SDS011;8482;54.396;18.590;2023-11-22T13:57:38;12.30;;;7.00;;
16727;SDS011;8482;54.396;18.590;2023-11-22T14:00:05;9.20;;;4.73;;
16727;SDS011;8482;54.396;18.590;2023-11-22T14:02:44;11.83;;;5.50;;
16727;SDS011;8482;54.396;18.590;2023-11-22T14:05:14;10.67;;;5.40;;
16727;SDS011;8482;54.396;18.590;2023-11-22T14:07:40;9.73;;;5.37;;
16727;SDS011;8482;54.396;18.590;2023-11-22T14:10:07;11.83;;;5.43;;
16727;SDS011;8482;54.396;18.590;2023-11-22T14:12:34;9.67;;;4.70;;
16727;SDS011;8482;54.396;18.590;2023-11-22T14:15:00;9.27;;;5.47;;
16727;SDS011;8482;54.396;18.590;2023-11-22T14:17:29;11.40;;;5.80;;
16727;SDS011;8482;54.396;18.590;2023-11-22T14:19:55;9.57;;;5.33;;
16727;SDS011;8482;54.396;18.590;2023-11-22T14:22:22;11.30;;;6.03;;
16727;SDS011;8482;54.396;18.590;2023-11-22T14:24:49;10.97;;;5.57;;
16727;SDS011;8482;54.396;18.590;2023-11-22T14:27:19;9.37;;;5.03;;
16727;SDS011;8482;54.396;18.590;2023-11-22T14:29:46;10.60;;;5.20;;
16727;SDS011;8482;54.396;18.590;2023-11-22T14:32:19;9.07;;;5.30;;
16727;SDS011;8482;54.396;18.590;2023-11-22T14:34:48;9.70;;;5.10;;
16727;SDS011;8482;54.396;18.590;2023-11-22T14:37:14;10.77;;;5.40;;
16727;SDS011;8482;54.396;18.590;2023-11-22T14:39:40;12.13;;;6.13;;
16727;SDS011;8482;54.396;18.590;2023-11-22T14:42:07;12.50;;;6.10;;
16727;SDS011;8482;54.396;18.590;2023-11-22T14:44:34;11.17;;;6.03;;
16727;SDS011;8482;54.396;18.590;2023-11-22T14:47:00;13.37;;;6.33;;
16727;SDS011;8482;54.396;18.590;2023-11-22T14:49:32;11.53;;;5.60;;